createdAt,value
2019-03-04T00:01:52.988Z,97.40
2019-03-04T00:04:21.631Z,97.40
2019-03-04T00:06:50.175Z,97.50
2019-03-04T00:09:18.901Z,97.60
2019-03-04T00:11:47.453Z,97.70
2019-03-04T00:14:16.042Z,97.80
2019-03-04T00:16:44.728Z,98.00
2019-03-04T00:19:13.287Z,98.00
2019-03-04T00:21:41.864Z,98.40
2019-03-04T00:24:10.414Z,98.50
2019-03-04T00:26:38.997Z,98.60
2019-03-04T00:29:07.544Z,98.60
2019-03-04T00:31:36.298Z,98.70
2019-03-04T00:34:04.845Z,98.80
2019-03-04T00:36:33.441Z,98.70
2019-03-04T00:39:02.060Z,98.80
2019-03-04T00:41:30.652Z,98.70
2019-03-04T00:43:59.261Z,98.70
2019-03-04T00:46:27.848Z,98.70
2019-03-04T00:48:56.413Z,98.80
2019-03-04T00:51:25.005Z,98.60
2019-03-04T00:53:53.560Z,98.70
2019-03-04T00:56:22.106Z,98.80
2019-03-04T00:58:50.686Z,98.70
2019-03-04T01:01:19.305Z,98.90
2019-03-04T01:03:47.897Z,99.10
2019-03-04T01:06:16.443Z,99.30
2019-03-04T01:08:45.024Z,99.60
2019-03-04T01:11:13.852Z,99.70
2019-03-04T01:13:42.504Z,99.90
2019-03-04T01:16:11.128Z,99.90
2019-03-04T01:18:39.687Z,99.90
2019-03-04T01:21:08.478Z,99.90
2019-03-04T01:23:37.105Z,99.90
2019-03-04T01:26:05.771Z,99.90
2019-03-04T01:28:34.396Z,99.90
2019-03-04T01:31:02.990Z,99.90
2019-03-04T01:33:31.654Z,99.90
2019-03-04T01:36:00.188Z,99.70
2019-03-04T01:38:28.767Z,99.20
2019-03-04T01:40:57.392Z,98.70
2019-03-04T01:43:25.936Z,98.30
2019-03-04T01:45:54.599Z,98.00
2019-03-04T01:48:23.140Z,97.80
2019-03-04T01:50:51.728Z,97.70
2019-03-04T01:53:20.288Z,97.60
2019-03-04T01:55:48.861Z,97.90
2019-03-04T01:58:17.421Z,97.80
2019-03-04T02:00:46.005Z,98.30
2019-03-04T02:03:14.628Z,98.30
2019-03-04T02:05:43.372Z,98.70
2019-03-04T02:08:11.957Z,98.70
2019-03-04T02:10:40.604Z,99.10
2019-03-04T02:13:09.300Z,99.40
2019-03-04T02:15:37.989Z,99.80
2019-03-04T02:18:06.707Z,99.90
2019-03-04T02:20:35.253Z,99.90
2019-03-04T02:23:03.960Z,99.90
2019-03-04T02:25:41.589Z,99.90
2019-03-04T02:28:10.168Z,99.90
2019-03-04T02:30:38.862Z,99.90
2019-03-04T02:33:07.602Z,99.90
2019-03-04T02:35:36.273Z,99.90
2019-03-04T02:38:04.922Z,99.90
2019-03-04T02:40:33.474Z,99.90
2019-03-04T02:43:02.061Z,99.90
2019-03-04T02:45:30.610Z,99.90
2019-03-04T02:47:59.305Z,99.90
2019-03-04T02:50:27.929Z,99.90
2019-03-04T02:52:56.493Z,99.90
2019-03-04T02:55:25.138Z,99.90
2019-03-04T02:57:53.754Z,99.90
2019-03-04T03:00:22.472Z,99.90
2019-03-04T03:02:51.033Z,99.90
2019-03-04T03:05:19.685Z,99.90
2019-03-04T03:07:48.246Z,99.90
2019-03-04T03:10:16.961Z,99.90
2019-03-04T03:12:45.521Z,99.40
2019-03-04T03:15:16.371Z,98.40
2019-03-04T03:17:45.020Z,97.90
2019-03-04T03:20:14.613Z,97.00
2019-03-04T03:22:43.334Z,96.80
2019-03-04T03:25:13.522Z,96.90
2019-03-04T03:27:42.168Z,97.80
2019-03-04T03:30:15.776Z,98.40
2019-03-04T03:32:50.644Z,99.90
2019-03-04T03:35:26.588Z,99.90
2019-03-04T03:37:54.427Z,99.90
2019-03-04T03:40:23.061Z,99.90
2019-03-04T03:42:51.723Z,99.90
2019-03-04T03:45:20.393Z,99.90
2019-03-04T03:47:48.964Z,99.90
2019-03-04T03:50:18.155Z,99.90
2019-03-04T03:52:46.987Z,99.90
2019-03-04T03:55:27.023Z,99.90
2019-03-04T03:57:58.057Z,99.90
2019-03-04T04:00:26.975Z,99.90
2019-03-04T04:02:55.562Z,99.90
2019-03-04T04:05:24.105Z,99.90
2019-03-04T04:07:52.649Z,99.90
2019-03-04T04:10:21.871Z,99.90
2019-03-04T04:12:50.559Z,99.90
2019-03-04T04:15:20.543Z,99.90
2019-03-04T04:17:49.190Z,99.90
2019-03-04T04:20:17.912Z,99.90
2019-03-04T04:22:46.538Z,99.90
2019-03-04T04:25:15.785Z,99.90
2019-03-04T04:27:44.513Z,99.90
2019-03-04T04:30:25.058Z,99.90
2019-03-04T04:32:53.714Z,99.90
2019-03-04T04:35:22.333Z,99.90
2019-03-04T04:37:50.886Z,99.90
2019-03-04T04:40:19.537Z,99.90
2019-03-04T04:42:48.080Z,99.90
2019-03-04T04:45:16.628Z,99.90
2019-03-04T04:47:45.334Z,99.90
2019-03-04T04:50:16.910Z,99.90
2019-03-04T04:52:45.484Z,99.90
2019-03-04T04:55:14.177Z,99.90
2019-03-04T04:57:42.827Z,99.90
2019-03-04T05:00:21.748Z,99.90
2019-03-04T05:02:50.325Z,99.90
2019-03-04T05:05:18.946Z,99.90
2019-03-04T05:07:47.601Z,99.90
2019-03-04T05:10:20.673Z,99.90
2019-03-04T05:12:49.389Z,99.90
2019-03-04T05:15:18.584Z,99.90
2019-03-04T05:17:47.196Z,99.90
2019-03-04T05:20:21.438Z,99.90
2019-03-04T05:22:50.057Z,99.90
2019-03-04T05:25:18.769Z,99.90
2019-03-04T05:27:47.322Z,99.90
2019-03-04T05:30:18.511Z,99.90
2019-03-04T05:32:47.238Z,99.90
2019-03-04T05:35:15.924Z,99.90
2019-03-04T05:37:44.839Z,99.90
2019-03-04T05:40:21.317Z,99.90
2019-03-04T05:42:49.921Z,99.90
2019-03-04T05:45:19.447Z,99.90
2019-03-04T05:47:48.130Z,99.90
2019-03-04T05:50:24.569Z,99.90
2019-03-04T05:52:53.185Z,99.90
2019-03-04T05:55:21.769Z,99.90
2019-03-04T05:57:50.401Z,99.90
2019-03-04T06:00:22.768Z,99.90
2019-03-04T06:02:53.860Z,99.90
2019-03-04T06:05:22.520Z,99.90
2019-03-04T06:07:52.710Z,99.90
2019-03-04T06:10:21.248Z,99.90
2019-03-04T06:12:49.841Z,99.90
2019-03-04T06:15:20.633Z,99.90
2019-03-04T06:17:49.353Z,99.90
2019-03-04T06:20:20.637Z,99.90
2019-03-04T06:22:49.294Z,99.90
2019-03-04T06:25:23.024Z,99.90
2019-03-04T06:27:51.610Z,99.90
2019-03-04T06:30:22.635Z,99.90
2019-03-04T06:32:51.320Z,99.90
2019-03-04T06:35:20.012Z,99.90
2019-03-04T06:37:48.742Z,99.90
2019-03-04T06:40:18.829Z,99.90
2019-03-04T06:42:47.486Z,99.90
2019-03-04T06:45:17.769Z,99.90
2019-03-04T06:47:46.354Z,99.90
2019-03-04T06:50:43.553Z,99.90
2019-03-04T06:53:12.125Z,99.90
2019-03-04T06:56:05.049Z,99.90
2019-03-04T06:58:51.773Z,99.90
2019-03-04T07:01:23.396Z,99.90
2019-03-04T07:03:55.055Z,99.90
2019-03-04T07:06:23.610Z,99.90
2019-03-04T07:08:55.258Z,99.90
2019-03-04T07:11:23.825Z,99.90
2019-03-04T07:13:52.365Z,99.90
2019-03-04T07:16:21.008Z,99.90
2019-03-04T07:18:49.628Z,99.90
2019-03-04T07:21:18.348Z,99.90
2019-03-04T07:23:47.068Z,99.90
2019-03-04T07:26:15.850Z,99.90
2019-03-04T07:28:44.892Z,99.90
2019-03-04T07:31:13.540Z,99.20
2019-03-04T07:33:42.156Z,99.40
2019-03-04T07:36:10.806Z,99.70
2019-03-04T07:38:48.289Z,99.70
2019-03-04T07:41:16.833Z,98.60
2019-03-04T07:43:45.385Z,97.80
2019-03-04T07:46:14.049Z,97.70
2019-03-04T07:48:42.744Z,97.70
2019-03-04T07:51:16.710Z,96.80
2019-03-04T07:53:46.903Z,97.00
2019-03-04T07:56:15.760Z,97.10
2019-03-04T07:58:44.378Z,96.10
2019-03-04T08:01:13.262Z,96.60
2019-03-04T08:03:41.989Z,96.30
2019-03-04T08:06:10.687Z,94.10
2019-03-04T08:08:40.950Z,91.40
2019-03-04T08:11:32.076Z,89.40
2019-03-04T08:14:06.344Z,85.70
2019-03-04T08:16:36.339Z,88.00
2019-03-04T08:19:05.269Z,86.20
2019-03-04T08:21:33.824Z,89.20
2019-03-04T08:24:02.649Z,86.70
2019-03-04T08:26:31.473Z,78.70
2019-03-04T08:29:00.130Z,80.40
2019-03-04T08:31:28.833Z,78.60
2019-03-04T08:33:57.674Z,79.10
2019-03-04T08:36:26.351Z,80.30
2019-03-04T08:38:54.957Z,80.70
2019-03-04T08:41:23.582Z,79.00
2019-03-04T08:43:52.165Z,81.60
2019-03-04T08:46:20.857Z,77.90
2019-03-04T08:48:49.444Z,75.20
2019-03-04T08:51:18.176Z,72.70
2019-03-04T08:53:46.726Z,68.70
2019-03-04T08:56:15.512Z,67.50
2019-03-04T08:58:44.022Z,64.60
2019-03-04T09:01:12.780Z,60.00
2019-03-04T09:03:41.619Z,58.00
2019-03-04T09:06:10.268Z,59.10
2019-03-04T09:08:39.121Z,59.20
2019-03-04T09:11:07.934Z,59.50
2019-03-04T09:13:36.913Z,59.40
2019-03-04T09:16:05.817Z,60.80
2019-03-04T09:18:34.601Z,62.20
2019-03-04T09:21:03.221Z,63.20
2019-03-04T09:23:31.974Z,64.70
2019-03-04T09:26:06.278Z,66.30
2019-03-04T09:28:35.768Z,68.10
2019-03-04T09:31:04.493Z,69.10
2019-03-04T09:33:33.171Z,69.20
2019-03-04T09:36:01.796Z,72.30
2019-03-04T09:38:30.568Z,72.20
2019-03-04T09:40:59.280Z,70.70
2019-03-04T09:43:27.920Z,71.90
2019-03-04T09:45:56.857Z,72.60
2019-03-04T09:48:25.864Z,73.20
2019-03-04T09:50:54.409Z,73.10
2019-03-04T09:53:23.134Z,73.40
2019-03-04T09:55:51.825Z,72.10
2019-03-04T09:58:20.569Z,71.90
2019-03-04T10:00:58.102Z,71.20
2019-03-04T10:03:41.558Z,71.70
2019-03-04T10:06:25.141Z,70.60
2019-03-04T10:09:11.811Z,73.80
2019-03-04T10:11:55.555Z,74.30
2019-03-04T10:14:32.929Z,73.70
2019-03-04T10:17:19.728Z,75.10
2019-03-04T10:20:03.595Z,76.60
2019-03-04T10:22:37.865Z,75.50
2019-03-04T10:25:31.873Z,77.00
2019-03-04T10:28:25.876Z,77.00
2019-03-04T10:31:03.381Z,76.70
2019-03-04T10:34:07.917Z,78.00
2019-03-04T10:36:56.192Z,77.60
2019-03-04T10:39:43.042Z,80.00
2019-03-04T10:42:31.274Z,80.70
2019-03-04T10:45:14.169Z,80.20
2019-03-04T10:47:42.768Z,76.60
2019-03-04T10:50:11.550Z,75.30
2019-03-04T10:52:40.455Z,75.30
2019-03-04T10:55:12.907Z,74.00
2019-03-04T10:57:41.740Z,73.70
2019-03-04T11:00:15.494Z,74.70
2019-03-04T11:02:44.145Z,77.10
2019-03-04T11:05:12.854Z,74.90
2019-03-04T11:07:41.596Z,77.00
2019-03-04T11:10:14.748Z,74.50
2019-03-04T11:12:43.793Z,75.90
2019-03-04T11:15:24.513Z,76.10
2019-03-04T11:17:54.479Z,75.40
2019-03-04T11:20:23.853Z,75.20
2019-03-04T11:22:52.698Z,75.00
2019-03-04T11:25:22.371Z,76.30
2019-03-04T11:27:51.083Z,74.20
2019-03-04T11:30:25.157Z,76.70
2019-03-04T11:32:53.773Z,80.00
2019-03-04T11:35:22.709Z,84.00
2019-03-04T11:37:51.826Z,82.30
2019-03-04T11:40:30.743Z,79.40
2019-03-04T11:42:59.741Z,82.00
2019-03-04T11:47:58.107Z,78.80
2019-03-04T11:50:26.819Z,80.20
2019-03-04T12:22:42.618Z,79.10
2019-03-04T12:30:21.528Z,70.60
2019-03-04T12:32:51.249Z,69.80
2019-03-04T12:35:20.945Z,72.50
2019-03-04T12:37:50.114Z,69.00
2019-03-04T12:40:22.852Z,70.70
2019-03-04T12:42:51.521Z,71.70
2019-03-04T12:45:22.282Z,73.30
2019-03-04T12:47:51.009Z,74.30
2019-03-04T12:50:28.232Z,76.60
2019-03-04T12:52:58.057Z,77.20
2019-03-04T12:55:26.849Z,77.60
2019-03-04T12:57:55.706Z,78.70
2019-03-04T13:00:34.921Z,80.60
2019-03-04T13:03:03.639Z,79.70
2019-03-04T13:05:32.857Z,80.40
2019-03-04T13:08:02.107Z,80.50
2019-03-04T13:10:31.771Z,76.80
2019-03-04T13:42:55.952Z,78.30
2019-03-04T13:45:24.765Z,66.60
2019-03-04T13:47:53.827Z,68.40
2019-03-04T13:50:29.757Z,67.30
2019-03-04T13:52:59.574Z,68.00
2019-03-04T13:55:28.290Z,65.10
2019-03-04T13:57:57.617Z,68.70
2019-03-04T14:00:34.877Z,70.50
2019-03-04T14:03:03.609Z,73.10
2019-03-04T14:05:32.322Z,84.20
2019-03-04T14:08:00.963Z,88.80
2019-03-04T14:10:46.742Z,89.40
2019-03-04T14:13:15.456Z,90.20
